Gadsden Northeast Alabama Regional Airport

About
Name: Gadsden Northeast Alabama Regional Airport
Identifier:  GAD/KGAD
Local Time:  20. Aug 08:49 CDT
Location
Flights per Day
0 flights
Distance: 252km (156mi)
Punctuality
66% (0 flights per day delayed)
Delay Average: 30 minutes
Current Weather
 24 C (Humidity: 100%)
  5kt (9km/h / 5mph) from 50°
  16km (10 mi.)
 
 METAR KGAD 201256Z AUTO 05005KT 10SM CLR 24/24 A3013 RMK AO2 SLP202 T02390239

Current Flights

Departures
Number Departure To Airline
Arrivals
Number Arrival From Airline

Current Delays

Departures
N/A
Arrivals
N/A

Destinations

Top Destinations
Airport Flights
per week
Seats
per week
  Knoxville (TYS) 0 - 0 0
  Montgomery (MGM) 0 - 0 0
  Huntsville (HSV) 0 - 0 0
  Atlanta (PDK) 0 - 0 0
  Atlanta (QQR) 0 - 0 0
  Greenville (GMU) 0 - 0 0
  Lawrenceville (LZU) 0 - 0 0
  Fort Scott (FSK) 0 - 0 0
  Muscle Shoals (MSL) 0 - 0 0
  Daytona Beach (DAB) 0 - 0 0
  Columbus (CLU) 0 - 0 0
  Bloomington (BMG) 0 - 0 0
  Gulf Shores (GUF) 0 - 0 0
  Dayton (DAY) 0 - 0 0
  Auburn (AUO) 0 - 0 0

Airlines & Planes

Top Airlines
Airline Flights
per Day
Seats
per Day
  Nolinor Aviation 0 -
  Novair 0 -
Nordwind Airlines 0 -
  National Airlines 0 -
Jet Charter Inc ( Franklin Lakes Nj ) 0 -
Top Plane Types
Model Flights Seats
Cessna C172 0.3/day - 0
Beech B200 Super King Air 0.0/day - 0
Beech E90 King Air 0.0/day - 0
Piper PA28-181 0.0/day - 0